createdAt,value
2019-03-01T00:01:26.010Z,99411.33
2019-03-01T00:03:57.072Z,99408.83
2019-03-01T00:06:29.870Z,99406.75
2019-03-01T00:08:58.812Z,99411.48
2019-03-01T00:11:25.950Z,99415.81
2019-03-01T00:13:58.287Z,99413.31
2019-03-01T00:16:25.682Z,99404.81
2019-03-01T00:18:54.983Z,99408.25
2019-03-01T00:21:23.362Z,99407.55
2019-03-01T00:23:53.315Z,99403.81
2019-03-01T00:26:20.418Z,99400.94
2019-03-01T00:28:51.890Z,99398.01
2019-03-01T00:31:19.314Z,99398.53
2019-03-01T00:33:56.517Z,99399.46
2019-03-01T00:36:25.211Z,99401.13
2019-03-01T00:38:55.268Z,99407.88
2019-03-01T00:41:24.813Z,99394.27
2019-03-01T00:43:54.642Z,99397.58
2019-03-01T00:46:23.869Z,99391.22
2019-03-01T00:48:53.170Z,99392.20
2019-03-01T00:51:19.845Z,99394.41
2019-03-01T00:53:48.986Z,99387.66
2019-03-01T00:56:16.413Z,99384.82
2019-03-01T00:58:46.730Z,99386.23
2019-03-01T01:01:16.158Z,99378.20
2019-03-01T01:03:42.751Z,99380.84
2019-03-01T01:06:09.840Z,99373.29
2019-03-01T01:08:38.686Z,99366.92
2019-03-01T01:11:05.804Z,99363.48
2019-03-01T01:13:33.006Z,99366.55
2019-03-01T01:16:01.079Z,99371.22
2019-03-01T01:18:30.941Z,99368.19
2019-03-01T01:20:58.078Z,99362.20
2019-03-01T01:23:30.464Z,99361.73
2019-03-01T01:26:01.329Z,99360.12
2019-03-01T01:28:28.483Z,99357.52
2019-03-01T01:30:57.163Z,99359.56
2019-03-01T01:33:24.494Z,99352.81
2019-03-01T01:35:55.795Z,99354.60
2019-03-01T01:38:22.864Z,99354.47
2019-03-01T01:40:50.063Z,99354.55
2019-03-01T01:43:23.511Z,99350.88
2019-03-01T01:45:53.643Z,99343.80
2019-03-01T01:48:20.731Z,99348.08
2019-03-01T01:50:47.748Z,99345.53
2019-03-01T01:53:17.821Z,99340.78
2019-03-01T01:55:47.564Z,99342.77
2019-03-01T01:58:14.589Z,99342.44
2019-03-01T02:00:43.103Z,99339.03
2019-03-01T02:03:12.607Z,99335.30
2019-03-01T02:05:43.695Z,99323.07
2019-03-01T02:08:07.752Z,99323.97
2019-03-01T02:10:35.213Z,99317.27
2019-03-01T02:13:03.921Z,99313.91
2019-03-01T02:15:32.852Z,99309.34
2019-03-01T02:18:01.808Z,99303.86
2019-03-01T02:20:32.065Z,99305.50
2019-03-01T02:22:59.999Z,99296.17
2019-03-01T02:25:27.049Z,99295.27
2019-03-01T02:27:56.163Z,99294.77
2019-03-01T02:30:23.298Z,99294.00
2019-03-01T02:32:50.357Z,99292.72
2019-03-01T02:35:17.357Z,99293.67
2019-03-01T02:37:47.583Z,99288.84
2019-03-01T02:40:22.525Z,99289.31
2019-03-01T02:42:49.823Z,99285.28
2019-03-01T02:45:17.179Z,99287.50
2019-03-01T02:47:50.869Z,99282.11
2019-03-01T02:50:22.948Z,99282.84
2019-03-01T02:52:52.091Z,99273.73
2019-03-01T02:55:22.529Z,99272.16
2019-03-01T02:57:54.686Z,99275.00
2019-03-01T03:00:18.725Z,99270.50
2019-03-01T03:02:45.796Z,99268.70
2019-03-01T03:05:12.733Z,99265.74
2019-03-01T03:07:40.991Z,99265.78
2019-03-01T03:10:08.096Z,99267.62
2019-03-01T03:12:37.016Z,99266.77
2019-03-01T03:15:05.339Z,99265.53
2019-03-01T03:17:35.155Z,99264.60
2019-03-01T03:20:04.521Z,99273.42
2019-03-01T03:22:31.516Z,99262.38
2019-03-01T03:25:02.239Z,99267.62
2019-03-01T03:27:30.134Z,99267.45
2019-03-01T03:30:06.692Z,99268.77
2019-03-01T03:32:33.709Z,99268.59
2019-03-01T03:35:00.792Z,99267.56
2019-03-01T03:37:31.534Z,99263.57
2019-03-01T03:40:00.768Z,99263.48
2019-03-01T03:42:27.999Z,99259.48
2019-03-01T03:44:55.545Z,99266.19
2019-03-01T03:47:24.721Z,99265.29
2019-03-01T03:49:51.769Z,99262.61
2019-03-01T03:52:18.841Z,99262.89
2019-03-01T03:54:48.382Z,99258.61
2019-03-01T03:57:17.021Z,99254.36
2019-03-01T03:59:44.144Z,99256.16
2019-03-01T04:02:12.246Z,99252.61
2019-03-01T04:04:46.703Z,99250.95
2019-03-01T04:07:13.762Z,99248.59
2019-03-01T04:09:42.707Z,99248.63
2019-03-01T04:12:10.370Z,99245.33
2019-03-01T04:14:37.497Z,99245.75
2019-03-01T04:17:07.906Z,99248.85
2019-03-01T04:19:39.814Z,99244.23
2019-03-01T04:22:23.084Z,99237.48
2019-03-01T04:24:50.096Z,99243.05
2019-03-01T04:27:17.049Z,99237.48
2019-03-01T04:29:44.417Z,99233.19
2019-03-01T04:32:11.388Z,99231.97
2019-03-01T04:34:38.356Z,99230.23
2019-03-01T04:37:07.505Z,99226.83
2019-03-01T04:39:34.880Z,99223.39
2019-03-01T04:42:02.269Z,99221.41
2019-03-01T04:44:29.327Z,99218.95
2019-03-01T04:46:56.657Z,99215.52
2019-03-01T04:49:29.526Z,99216.36
2019-03-01T04:51:57.014Z,99217.59
2019-03-01T04:54:24.660Z,99216.70
2019-03-01T04:56:52.025Z,99220.47
2019-03-01T04:59:32.539Z,99221.41
2019-03-01T05:01:50.149Z,99213.85
2019-03-01T05:04:17.654Z,99209.91
2019-03-01T05:06:47.478Z,99210.95
2019-03-01T05:09:14.514Z,99206.98
2019-03-01T05:11:45.340Z,99206.33
2019-03-01T05:14:12.443Z,99205.25
2019-03-01T05:16:43.415Z,99211.84
2019-03-01T05:19:13.008Z,99206.16
2019-03-01T05:21:42.396Z,99212.84
2019-03-01T05:24:14.695Z,99205.16
2019-03-01T05:26:42.779Z,99203.45
2019-03-01T05:29:10.240Z,99204.16
2019-03-01T05:31:39.398Z,99205.48
2019-03-01T05:34:07.291Z,99193.16
2019-03-01T05:36:34.484Z,99199.39
2019-03-01T05:39:01.766Z,99200.56
2019-03-01T05:41:34.010Z,99194.63
2019-03-01T05:44:01.040Z,99188.30
2019-03-01T05:46:35.482Z,99199.77
2019-03-01T05:49:02.822Z,99188.77
2019-03-01T05:51:29.948Z,99187.92
2019-03-01T05:53:59.039Z,99197.69
2019-03-01T05:56:35.007Z,99192.08
2019-03-01T05:59:02.268Z,99192.87
2019-03-01T06:01:36.676Z,99197.08
2019-03-01T06:04:05.956Z,99200.90
2019-03-01T06:06:32.974Z,99201.00
2019-03-01T06:09:00.034Z,99204.77
2019-03-01T06:11:26.994Z,99202.69
2019-03-01T06:13:57.256Z,99200.90
2019-03-01T06:16:24.314Z,99197.97
2019-03-01T06:18:54.904Z,99197.97
2019-03-01T06:21:26.094Z,99194.63
2019-03-01T06:23:55.911Z,99192.27
2019-03-01T06:26:24.603Z,99195.19
2019-03-01T06:28:57.616Z,99198.16
2019-03-01T06:31:34.122Z,99196.52
2019-03-01T06:33:59.798Z,99193.06
2019-03-01T06:36:30.181Z,99191.80
2019-03-01T06:39:02.143Z,99195.14
2019-03-01T06:41:27.665Z,99203.02
2019-03-01T06:43:58.731Z,99204.29
2019-03-01T06:46:26.934Z,99200.45
2019-03-01T06:49:00.457Z,99198.32
2019-03-01T06:51:29.412Z,99200.45
2019-03-01T06:53:59.504Z,99197.08
2019-03-01T06:56:26.570Z,99205.55
2019-03-01T06:58:53.998Z,99201.30
2019-03-01T07:01:25.834Z,99199.97
2019-03-01T07:03:55.490Z,99197.91
2019-03-01T07:06:25.040Z,99196.16
2019-03-01T07:08:53.680Z,99191.05
2019-03-01T07:11:22.438Z,99192.77
2019-03-01T07:13:51.458Z,99189.40
2019-03-01T07:16:18.821Z,99195.38
2019-03-01T07:18:46.082Z,99194.52
2019-03-01T07:21:16.009Z,99186.85
2019-03-01T07:23:43.117Z,99188.62
2019-03-01T07:26:10.467Z,99186.88
2019-03-01T07:28:40.450Z,99184.73
2019-03-01T07:31:07.511Z,99185.95
2019-03-01T07:33:36.714Z,99185.02
2019-03-01T07:36:05.393Z,99181.94
2019-03-01T07:38:32.563Z,99186.55
2019-03-01T07:40:59.934Z,99184.80
2019-03-01T07:43:27.360Z,99185.13
2019-03-01T07:45:54.684Z,99188.48
2019-03-01T07:48:22.091Z,99190.97
2019-03-01T07:50:49.089Z,99192.30
2019-03-01T07:53:17.154Z,99195.66
2019-03-01T07:55:46.492Z,99202.08
2019-03-01T07:58:15.086Z,99201.66
2019-03-01T08:00:42.434Z,99206.75
2019-03-01T08:03:11.899Z,99209.20
2019-03-01T08:05:40.249Z,99211.27
2019-03-01T08:08:07.586Z,99210.89
2019-03-01T08:10:36.949Z,99207.02
2019-03-01T08:13:04.576Z,99204.00
2019-03-01T08:15:34.446Z,99203.52
2019-03-01T08:18:04.856Z,99200.13
2019-03-01T08:20:30.440Z,99201.41
2019-03-01T08:23:01.962Z,99201.02
2019-03-01T08:25:28.509Z,99202.25
2019-03-01T08:27:59.438Z,99201.36
2019-03-01T08:30:26.771Z,99198.33
2019-03-01T08:32:56.328Z,99199.02
2019-03-01T08:35:25.347Z,99200.09
2019-03-01T08:37:53.397Z,99195.78
2019-03-01T08:40:20.809Z,99202.59
2019-03-01T08:42:50.965Z,99206.09
2019-03-01T08:45:19.291Z,99207.84
2019-03-01T08:47:55.358Z,99206.28
2019-03-01T08:50:17.590Z,99206.77
2019-03-01T08:52:48.988Z,99205.88
2019-03-01T08:55:16.498Z,99202.84
2019-03-01T08:57:44.436Z,99202.94
2019-03-01T09:00:14.490Z,99200.03
2019-03-01T09:02:42.013Z,99200.77
2019-03-01T09:05:09.925Z,99200.19
2019-03-01T09:07:39.682Z,99197.11
2019-03-01T09:10:06.738Z,99191.80
2019-03-01T09:12:35.783Z,99196.80
2019-03-01T09:15:07.365Z,99194.78
2019-03-01T09:17:32.035Z,99199.23
2019-03-01T09:20:02.812Z,99191.58
2019-03-01T09:22:29.883Z,99193.13
2019-03-01T09:24:57.053Z,99193.13
2019-03-01T09:27:30.160Z,99194.83
2019-03-01T09:29:59.422Z,99201.09
2019-03-01T09:32:30.444Z,99193.52
2019-03-01T09:34:58.173Z,99195.23
2019-03-01T09:37:25.634Z,99187.16
2019-03-01T09:39:53.747Z,99189.45
2019-03-01T09:42:24.628Z,99193.28
2019-03-01T09:44:51.746Z,99186.70
2019-03-01T09:47:20.891Z,99188.51
2019-03-01T09:49:52.393Z,99185.06
2019-03-01T09:52:20.403Z,99185.37
2019-03-01T09:54:50.225Z,99183.92
2019-03-01T09:57:18.833Z,99180.96
2019-03-01T09:59:52.011Z,99178.20
2019-03-01T10:02:19.193Z,99189.51
2019-03-01T10:04:48.042Z,99182.03
2019-03-01T10:07:16.661Z,99185.37
2019-03-01T10:09:44.680Z,99181.86
2019-03-01T10:12:18.351Z,99181.28
2019-03-01T10:14:42.036Z,99174.09
2019-03-01T10:17:08.992Z,99179.96
2019-03-01T10:19:36.494Z,99183.98
2019-03-01T10:22:04.880Z,99189.04
2019-03-01T10:24:34.738Z,99187.23
2019-03-01T10:27:03.098Z,99190.45
2019-03-01T10:29:32.125Z,99188.28
2019-03-01T10:31:59.237Z,99201.53
2019-03-01T10:34:26.574Z,99195.36
2019-03-01T10:36:54.046Z,99188.08
2019-03-01T10:39:21.046Z,99191.16
2019-03-01T10:41:50.035Z,99191.22
2019-03-01T10:44:17.033Z,99192.44
2019-03-01T10:46:45.699Z,99189.51
2019-03-01T10:49:15.704Z,99188.03
2019-03-01T10:51:42.686Z,99191.42
2019-03-01T10:54:09.713Z,99189.78
2019-03-01T10:56:37.058Z,99191.02
2019-03-01T10:59:04.473Z,99185.94
2019-03-01T11:01:31.960Z,99184.88
2019-03-01T11:03:58.979Z,99188.02
2019-03-01T11:06:26.496Z,99190.72
2019-03-01T11:08:55.079Z,99178.23
2019-03-01T11:11:23.675Z,99183.52
2019-03-01T11:13:51.098Z,99183.77
2019-03-01T11:16:18.150Z,99184.05
2019-03-01T11:18:45.401Z,99190.06
2019-03-01T11:21:12.491Z,99191.84
2019-03-01T11:23:39.832Z,99188.28
2019-03-01T11:26:09.345Z,99197.00
2019-03-01T11:28:36.742Z,99195.05
2019-03-01T11:31:06.597Z,99189.19
2019-03-01T11:33:33.567Z,99193.02
2019-03-01T11:36:00.644Z,99190.89
2019-03-01T11:38:27.628Z,99194.34
2019-03-01T11:40:55.859Z,99188.39
2019-03-01T11:43:23.429Z,99183.87
2019-03-01T11:45:50.464Z,99182.91
2019-03-01T11:48:18.226Z,99178.77
2019-03-01T11:50:45.349Z,99181.48
2019-03-01T11:53:12.501Z,99180.05
2019-03-01T11:55:41.370Z,99185.87
2019-03-01T11:58:08.522Z,99180.83
2019-03-01T12:00:35.483Z,99180.09
2019-03-01T12:03:05.365Z,99178.77
2019-03-01T12:05:34.472Z,99175.88
2019-03-01T12:08:01.475Z,99171.22
2019-03-01T12:10:28.838Z,99172.77
2019-03-01T12:12:56.001Z,99177.17
2019-03-01T12:15:23.311Z,99170.07
2019-03-01T12:17:52.334Z,99174.95
2019-03-01T12:20:21.219Z,99173.80
2019-03-01T12:22:51.769Z,99176.29
2019-03-01T12:25:19.350Z,99168.95
2019-03-01T12:27:47.192Z,99173.19
2019-03-01T12:30:14.378Z,99165.59
2019-03-01T12:32:53.081Z,99161.52
2019-03-01T12:35:22.026Z,99159.80
2019-03-01T12:37:50.934Z,99162.79
2019-03-01T12:40:18.339Z,99169.58
2019-03-01T12:42:45.809Z,99167.33
2019-03-01T12:45:15.346Z,99167.39
2019-03-01T12:47:44.734Z,99161.73
2019-03-01T12:50:11.789Z,99164.29
2019-03-01T12:52:38.813Z,99164.05
2019-03-01T12:55:12.299Z,99168.83
2019-03-01T12:57:39.758Z,99160.20
2019-03-01T13:00:14.371Z,99160.09
2019-03-01T13:02:43.584Z,99167.09
2019-03-01T13:05:12.629Z,99162.52
2019-03-01T13:07:44.440Z,99159.19
2019-03-01T13:10:11.486Z,99169.51
2019-03-01T13:12:41.164Z,99168.66
2019-03-01T13:15:10.675Z,99164.46
2019-03-01T13:17:38.291Z,99160.58
2019-03-01T13:20:07.071Z,99161.36
2019-03-01T13:22:34.248Z,99165.25
2019-03-01T13:25:07.491Z,99170.84
2019-03-01T13:27:29.939Z,99202.39
2019-03-01T13:29:58.636Z,99214.70
2019-03-01T13:32:26.313Z,99201.27
2019-03-01T13:34:53.357Z,99197.73
2019-03-01T13:37:20.502Z,99194.90
2019-03-01T13:39:51.026Z,99191.55
2019-03-01T13:42:18.421Z,99196.34
2019-03-01T13:44:47.169Z,99200.16
2019-03-01T13:47:15.280Z,99199.88
2019-03-01T13:49:42.299Z,99202.81
2019-03-01T13:52:09.447Z,99205.24
2019-03-01T13:54:36.599Z,99201.66
2019-03-01T13:57:04.021Z,99205.74
2019-03-01T13:59:31.157Z,99210.38
2019-03-01T14:01:58.254Z,99211.66
2019-03-01T14:04:26.878Z,99210.33
2019-03-01T14:06:54.227Z,99211.55
2019-03-01T14:09:23.302Z,99215.33
2019-03-01T14:11:51.009Z,99223.29
2019-03-01T14:14:18.031Z,99226.13
2019-03-01T14:16:44.962Z,99224.73
2019-03-01T14:19:12.361Z,99226.28
2019-03-01T14:21:39.627Z,99231.18
2019-03-01T14:24:07.045Z,99228.73
2019-03-01T14:26:34.609Z,99228.84
2019-03-01T14:29:01.840Z,99233.55
2019-03-01T14:31:28.885Z,99237.86
2019-03-01T14:33:55.881Z,99235.69
2019-03-01T14:36:24.523Z,99240.64
2019-03-01T14:38:51.844Z,99238.88
2019-03-01T14:41:19.015Z,99241.23
2019-03-01T14:43:46.331Z,99248.02
2019-03-01T14:46:13.753Z,99255.78
2019-03-01T14:48:43.013Z,99259.11
2019-03-01T14:51:10.885Z,99253.95
2019-03-01T14:53:38.479Z,99268.84
2019-03-01T14:56:05.504Z,99265.02
2019-03-01T14:58:32.795Z,99273.95
2019-03-01T15:00:59.819Z,99262.47
2019-03-01T15:03:27.379Z,99268.15
2019-03-01T15:05:59.154Z,99269.89
2019-03-01T15:08:27.746Z,99267.48
2019-03-01T15:10:55.642Z,99271.56
2019-03-01T15:13:22.655Z,99268.16
2019-03-01T15:15:52.563Z,99270.09
2019-03-01T15:18:19.652Z,99266.64
2019-03-01T15:20:47.061Z,99279.01
2019-03-01T15:23:15.235Z,99277.84
2019-03-01T15:25:47.291Z,99276.98
2019-03-01T15:28:16.529Z,99284.36
2019-03-01T15:30:48.229Z,99285.39
2019-03-01T15:33:21.301Z,99287.15
2019-03-01T15:35:49.471Z,99287.58
2019-03-01T15:38:16.510Z,99292.30
2019-03-01T15:40:43.541Z,99288.33
2019-03-01T15:43:10.555Z,99297.57
2019-03-01T15:45:39.892Z,99297.02
2019-03-01T15:48:08.508Z,99306.78
2019-03-01T15:50:37.110Z,99303.53
2019-03-01T15:53:04.463Z,99317.64
2019-03-01T15:55:34.438Z,99317.27
2019-03-01T15:58:01.406Z,99315.57
2019-03-01T16:00:29.462Z,99333.51
2019-03-01T16:03:00.212Z,99327.70
2019-03-01T16:05:27.170Z,99337.94
2019-03-01T16:07:54.498Z,99338.03
2019-03-01T16:10:21.495Z,99341.77
2019-03-01T16:12:48.973Z,99343.13
2019-03-01T16:15:16.760Z,99342.66
2019-03-01T16:17:44.377Z,99345.30
2019-03-01T16:20:11.702Z,99348.70
2019-03-01T16:22:38.889Z,99350.83
2019-03-01T16:25:07.314Z,99347.91
2019-03-01T16:27:36.183Z,99355.98
2019-03-01T16:30:06.448Z,99355.68
2019-03-01T16:32:33.914Z,99364.69
2019-03-01T16:35:00.998Z,99367.25
2019-03-01T16:37:28.464Z,99371.53
2019-03-01T16:40:00.204Z,99370.34
2019-03-01T16:42:26.842Z,99375.02
2019-03-01T16:44:54.113Z,99376.80
2019-03-01T16:47:23.322Z,99379.49
2019-03-01T16:49:49.984Z,99384.75
2019-03-01T16:52:20.288Z,99395.11
2019-03-01T16:54:47.627Z,99390.48
2019-03-01T16:57:21.677Z,99400.29
2019-03-01T16:59:50.891Z,99402.75
2019-03-01T17:02:19.792Z,99404.83
2019-03-01T17:04:48.610Z,99421.55
2019-03-01T17:07:16.113Z,99427.97
2019-03-01T17:09:43.787Z,99431.91
2019-03-01T17:12:13.847Z,99438.94
2019-03-01T17:14:43.734Z,99441.98
2019-03-01T17:17:10.871Z,99447.00
2019-03-01T17:19:44.101Z,99450.70
2019-03-01T17:22:14.422Z,99452.83
2019-03-01T17:24:51.287Z,99457.11
2019-03-01T17:27:16.144Z,99464.29
2019-03-01T17:29:43.580Z,99465.29
2019-03-01T17:32:19.511Z,99463.20
2019-03-01T17:34:44.935Z,99471.27
2019-03-01T17:37:14.844Z,99467.03
2019-03-01T17:39:58.808Z,99473.00
2019-03-01T17:42:20.721Z,99498.55
2019-03-01T17:47:32.948Z,99509.81
2019-03-01T17:50:00.524Z,99514.01
2019-03-01T17:52:30.492Z,99513.36
2019-03-01T17:55:01.428Z,99513.50
2019-03-01T18:00:12.871Z,99521.32
2019-03-01T18:02:54.715Z,99525.62
2019-03-01T18:06:16.864Z,99526.08
2019-03-01T18:22:23.080Z,99559.25
2019-03-01T18:22:59.394Z,99543.11
2019-03-01T18:27:26.088Z,99579.50
2019-03-01T18:29:58.300Z,99577.09
2019-03-01T18:32:26.437Z,99585.66
2019-03-01T18:37:34.394Z,99582.39
2019-03-01T18:40:13.430Z,99588.41
2019-03-01T18:42:58.700Z,99594.44
2019-03-01T18:45:19.099Z,99600.31
2019-03-01T18:47:52.439Z,99601.19
2019-03-01T18:50:21.094Z,99605.52
2019-03-01T18:53:03.442Z,99608.98
2019-03-01T18:55:32.991Z,99611.14
2019-03-01T18:58:14.839Z,99612.86
2019-03-01T19:03:24.017Z,99625.73
2019-03-01T19:05:52.977Z,99627.97
2019-03-01T19:08:36.532Z,99629.30
2019-03-01T19:11:08.199Z,99631.46
2019-03-01T19:13:52.211Z,99628.47
2019-03-01T19:16:28.600Z,99634.33
2019-03-01T19:21:27.762Z,99646.98
2019-03-01T19:23:54.873Z,99650.77
2019-03-01T19:26:22.184Z,99649.47
2019-03-01T19:28:49.673Z,99649.13
2019-03-01T19:31:16.640Z,99653.38
2019-03-01T19:33:43.717Z,99656.84
2019-03-01T19:36:11.909Z,99653.01
2019-03-01T19:38:39.324Z,99669.94
2019-03-01T19:41:06.849Z,99663.66
2019-03-01T19:43:41.603Z,99661.96
2019-03-01T19:46:09.248Z,99665.42
2019-03-01T19:48:37.275Z,99669.21
2019-03-01T19:51:08.699Z,99672.09
2019-03-01T19:53:38.956Z,99675.17
2019-03-01T19:56:08.047Z,99674.34
2019-03-01T19:58:35.429Z,99678.21
2019-03-01T20:01:06.231Z,99673.99
2019-03-01T20:06:36.058Z,99682.93
2019-03-01T20:09:04.497Z,99684.47
2019-03-01T20:11:37.451Z,99690.81
2019-03-01T20:14:04.503Z,99694.20
2019-03-01T20:16:36.916Z,99697.96
2019-03-01T20:22:04.773Z,99692.08
2019-03-01T20:24:39.985Z,99699.08
2019-03-01T20:27:05.891Z,99702.53
2019-03-01T20:29:33.064Z,99704.95
2019-03-01T20:32:00.019Z,99708.28
2019-03-01T20:34:27.039Z,99709.91
2019-03-01T20:36:57.599Z,99709.39
2019-03-01T20:39:24.704Z,99718.62
2019-03-01T20:41:52.109Z,99716.20
2019-03-01T20:44:19.858Z,99719.69
2019-03-01T20:46:54.048Z,99722.72
2019-03-01T20:49:23.906Z,99730.42
2019-03-01T20:51:52.408Z,99733.44
2019-03-01T20:54:21.805Z,99738.09
2019-03-01T20:59:20.586Z,99753.30
2019-03-01T21:01:47.634Z,99753.71
2019-03-01T21:04:16.997Z,99754.19
2019-03-01T21:06:47.203Z,99758.39
2019-03-01T21:09:14.482Z,99760.49
2019-03-01T21:11:41.720Z,99759.22
2019-03-01T21:14:08.718Z,99757.08
2019-03-01T21:16:36.091Z,99769.78
2019-03-01T21:19:05.801Z,99762.56
2019-03-01T21:21:34.323Z,99768.48
2019-03-01T21:24:01.542Z,99768.52
2019-03-01T21:26:28.503Z,99773.98
2019-03-01T21:28:55.554Z,99773.63
2019-03-01T21:31:22.494Z,99780.44
2019-03-01T21:33:49.540Z,99781.64
2019-03-01T21:36:16.574Z,99784.27
2019-03-01T21:38:45.761Z,99789.34
2019-03-01T21:41:15.273Z,99788.96
2019-03-01T21:43:44.557Z,99794.08
2019-03-01T21:46:16.866Z,99794.02
2019-03-01T21:48:43.855Z,99792.30
2019-03-01T21:51:11.199Z,99795.66
2019-03-01T21:53:39.925Z,99799.50
2019-03-01T21:56:08.612Z,99804.98
2019-03-01T21:58:38.515Z,99801.64
2019-03-01T22:01:05.822Z,99804.58
2019-03-01T22:03:33.324Z,99801.64
2019-03-01T22:06:00.775Z,99803.34
2019-03-01T22:08:29.296Z,99802.95
2019-03-01T22:10:56.281Z,99801.27
2019-03-01T22:13:23.557Z,99805.05
2019-03-01T22:15:52.856Z,99806.32
2019-03-01T22:18:20.507Z,99811.02
2019-03-01T22:20:48.907Z,99808.94
2019-03-01T22:23:22.228Z,99816.16
2019-03-01T22:25:49.231Z,99816.16
2019-03-01T22:28:21.202Z,99817.86
2019-03-01T22:30:47.886Z,99812.34
2019-03-01T22:33:17.473Z,99801.43
2019-03-01T22:35:44.605Z,99808.66
2019-03-01T22:38:12.080Z,99820.53
2019-03-01T22:40:39.064Z,99828.22
2019-03-01T22:43:06.345Z,99830.75
2019-03-01T22:45:33.307Z,99832.45
2019-03-01T22:48:01.944Z,99828.25
2019-03-01T22:50:28.872Z,99835.89
2019-03-01T22:52:55.880Z,99832.94
2019-03-01T22:55:23.162Z,99831.67
2019-03-01T22:57:50.563Z,99828.75
2019-03-01T23:00:19.518Z,99828.33
2019-03-01T23:02:47.951Z,99830.41
2019-03-01T23:05:15.096Z,99837.59
2019-03-01T23:07:43.581Z,99834.61
2019-03-01T23:10:10.855Z,99837.55
2019-03-01T23:12:40.562Z,99835.89
2019-03-01T23:15:07.891Z,99841.03
2019-03-01T23:17:35.061Z,99845.27
2019-03-01T23:20:02.094Z,99838.56
2019-03-01T23:22:29.486Z,99840.69
2019-03-01T23:24:56.474Z,99841.52
2019-03-01T23:27:23.458Z,99839.80
2019-03-01T23:29:50.922Z,99846.53
2019-03-01T23:32:19.071Z,99846.08
2019-03-01T23:34:46.451Z,99846.12
2019-03-01T23:37:14.842Z,99843.25
2019-03-01T23:39:41.803Z,99850.92
2019-03-01T23:42:08.783Z,99858.91
2019-03-01T23:44:38.678Z,99852.22
2019-03-01T23:47:04.410Z,99853.48
2019-03-01T23:49:31.345Z,99853.04
2019-03-01T23:51:58.635Z,99854.30
2019-03-01T23:54:25.559Z,99850.55
2019-03-01T23:56:52.829Z,99848.52
2019-03-01T23:59:19.812Z,99847.70
